Time;durP1;ratioP1;P1;durP2;ratioP2;P2;SDS_P1;SDS_P2;PMS_P1;PMS_P2;Temp;Humidity;BMP_temperature;BMP_pressure;BME280_temperature;BME280_humidity;BME280_pressure;Samples;Min_cycle;Max_cycle;Signal;HPM_P1;HPM_P2
2022/11/06 00:00:13;;;;;;;7.15;4.05;;;;;;;;;;6244456;22;20015;-41
2022/11/06 00:02:41;;;;;;;8.73;2.83;;;;;;;;;;6217041;22;20015;-41
2022/11/06 00:07:52;;;;;;;4.57;2.15;;;;;;;;;;6235259;22;20435;-42
2022/11/06 00:10:19;;;;;;;9.10;3.80;;;;;;;;;;6248798;22;20027;-41
2022/11/06 00:12:45;;;;;;;8.05;4.05;;;;;;;;;;6236899;22;20015;-41
2022/11/06 00:15:12;;;;;;;10.02;4.38;;;;;;;;;;6241472;22;20070;-41
2022/11/06 00:17:39;;;;;;;9.93;3.50;;;;;;;;;;6235102;22;20023;-40
2022/11/06 00:20:08;;;;;;;5.68;3.45;;;;;;;;;;6247869;22;20856;-41
2022/11/06 00:22:34;;;;;;;6.10;3.30;;;;;;;;;;6233282;22;20478;-40
2022/11/06 00:25:01;;;;;;;12.23;4.75;;;;;;;;;;6239484;22;20015;-42
2022/11/06 00:27:28;;;;;;;20.90;4.80;;;;;;;;;;6241639;22;20040;-41
2022/11/06 00:29:54;;;;;;;8.93;3.30;;;;;;;;;;6241638;22;20430;-41
2022/11/06 00:32:21;;;;;;;17.75;4.68;;;;;;;;;;6236886;22;20022;-40
2022/11/06 00:34:48;;;;;;;8.37;4.70;;;;;;;;;;6239618;22;20016;-40
2022/11/06 00:37:16;;;;;;;8.82;5.03;;;;;;;;;;6243034;22;20015;-40
2022/11/06 00:39:43;;;;;;;10.88;3.45;;;;;;;;;;6245053;22;20481;-40
2022/11/06 00:42:12;;;;;;;9.88;5.47;;;;;;;;;;6247775;22;20020;-40
2022/11/06 00:44:44;;;;;;;13.10;5.20;;;;;;;;;;6231308;22;20483;-40
2022/11/06 00:47:11;;;;;;;7.70;4.07;;;;;;;;;;6245373;22;20012;-40
2022/11/06 00:49:37;;;;;;;10.05;4.18;;;;;;;;;;6234914;22;20093;-41
2022/11/06 00:52:04;;;;;;;5.30;2.72;;;;;;;;;;6241349;22;20299;-40
2022/11/06 00:54:36;;;;;;;7.80;4.80;;;;;;;;;;6238421;22;20312;-41
2022/11/06 00:57:03;;;;;;;6.55;3.78;;;;;;;;;;6249166;22;20015;-42
2022/11/06 00:59:29;;;;;;;10.27;3.33;;;;;;;;;;6234873;22;20026;-40
2022/11/06 01:01:56;;;;;;;8.25;3.28;;;;;;;;;;6246572;22;20070;-40
2022/11/06 01:04:24;;;;;;;6.70;3.42;;;;;;;;;;6235162;22;20462;-40
2022/11/06 01:06:52;;;;;;;4.93;2.03;;;;;;;;;;6240880;22;20091;-42
2022/11/06 01:09:19;;;;;;;8.20;2.85;;;;;;;;;;6239438;22;20255;-40
2022/11/06 01:11:48;;;;;;;5.37;3.23;;;;;;;;;;6244277;22;20016;-41
2022/11/06 01:14:16;;;;;;;4.85;2.72;;;;;;;;;;6236968;22;20015;-40
2022/11/06 01:16:42;;;;;;;5.55;3.55;;;;;;;;;;6245689;22;20061;-40
2022/11/06 01:19:10;;;;;;;7.22;2.83;;;;;;;;;;6238805;22;20016;-40
2022/11/06 01:21:38;;;;;;;6.68;4.20;;;;;;;;;;6244151;22;20019;-41
2022/11/06 01:24:06;;;;;;;12.37;3.97;;;;;;;;;;6243911;22;20011;-44
2022/11/06 01:26:34;;;;;;;4.82;2.13;;;;;;;;;;6233496;22;20012;-40
2022/11/06 01:29:02;;;;;;;7.70;2.35;;;;;;;;;;6229078;22;20480;-40
2022/11/06 01:31:31;;;;;;;4.70;2.78;;;;;;;;;;6238567;22;20066;-40
2022/11/06 01:33:58;;;;;;;6.30;3.00;;;;;;;;;;6245652;22;20015;-42
2022/11/06 01:36:25;;;;;;;8.40;3.30;;;;;;;;;;6237463;22;20019;-40
2022/11/06 01:38:53;;;;;;;9.07;3.00;;;;;;;;;;6243884;22;20016;-40
2022/11/06 01:41:20;;;;;;;6.28;2.95;;;;;;;;;;6236315;22;20019;-40
2022/11/06 01:43:48;;;;;;;7.03;3.20;;;;;;;;;;6249390;22;20020;-40
2022/11/06 01:46:16;;;;;;;3.78;1.92;;;;;;;;;;6237575;22;20801;-39
2022/11/06 01:48:49;;;;;;;5.57;2.97;;;;;;;;;;6242824;22;20035;-39
2022/11/06 01:51:16;;;;;;;4.65;2.10;;;;;;;;;;6238760;22;20015;-39
2022/11/06 01:53:42;;;;;;;4.38;1.75;;;;;;;;;;6243537;22;20023;-40
2022/11/06 01:56:11;;;;;;;4.90;2.30;;;;;;;;;;6233527;22;20038;-39
2022/11/06 01:58:40;;;;;;;6.93;2.83;;;;;;;;;;6245934;22;20069;-42
2022/11/06 02:01:07;;;;;;;5.83;3.23;;;;;;;;;;6239616;22;20015;-43
2022/11/06 02:03:35;;;;;;;5.13;2.70;;;;;;;;;;6249364;22;20023;-40
2022/11/06 02:06:02;;;;;;;5.78;3.63;;;;;;;;;;6231617;22;20020;-40
2022/11/06 02:08:35;;;;;;;7.28;3.70;;;;;;;;;;6237686;22;20066;-39
2022/11/06 02:11:02;;;;;;;6.65;3.85;;;;;;;;;;6244009;22;20138;-42
2022/11/06 02:13:33;;;;;;;5.00;2.83;;;;;;;;;;6239171;22;20067;-39
2022/11/06 02:16:03;;;;;;;11.23;4.00;;;;;;;;;;6237331;22;20094;-41
2022/11/06 02:18:50;;;;;;;7.35;2.47;;;;;;;;;;6242533;22;20451;-40
2022/11/06 02:21:31;;;;;;;12.07;3.47;;;;;;;;;;6236069;22;20536;-41
2022/11/06 02:24:12;;;;;;;4.97;2.10;;;;;;;;;;6242654;22;20439;-40
2022/11/06 02:26:56;;;;;;;7.93;3.80;;;;;;;;;;6240733;22;20020;-41
2022/11/06 02:29:27;;;;;;;5.22;3.13;;;;;;;;;;6246271;22;20012;-40
2022/11/06 02:31:55;;;;;;;6.13;2.95;;;;;;;;;;6236682;22;20058;-40
2022/11/06 02:34:24;;;;;;;7.78;2.92;;;;;;;;;;6242053;22;20022;-41
2022/11/06 02:36:53;;;;;;;6.90;1.80;;;;;;;;;;6235329;22;20016;-40
2022/11/06 02:39:22;;;;;;;5.07;2.10;;;;;;;;;;6245244;22;20015;-40
2022/11/06 02:41:49;;;;;;;5.03;2.55;;;;;;;;;;6230487;22;20386;-39
2022/11/06 02:44:19;;;;;;;5.18;2.53;;;;;;;;;;6243715;22;20016;-41
2022/11/06 02:46:49;;;;;;;3.85;1.70;;;;;;;;;;6227107;22;20012;-39
2022/11/06 02:49:17;;;;;;;8.60;3.10;;;;;;;;;;6224836;22;20422;-43
2022/11/06 02:51:46;;;;;;;6.33;3.77;;;;;;;;;;6246429;22;20456;-41
2022/11/06 02:54:13;;;;;;;5.13;1.80;;;;;;;;;;6245964;22;20769;-40
2022/11/06 02:56:42;;;;;;;6.65;2.35;;;;;;;;;;6237830;22;20024;-40
2022/11/06 02:59:10;;;;;;;5.20;2.75;;;;;;;;;;6248375;22;20019;-41
2022/11/06 03:01:40;;;;;;;8.00;2.40;;;;;;;;;;6242427;22;20019;-40
2022/11/06 03:04:10;;;;;;;6.17;2.90;;;;;;;;;;6214015;22;20490;-40
2022/11/06 03:06:40;;;;;;;5.00;2.42;;;;;;;;;;6250607;22;20050;-40
2022/11/06 03:09:09;;;;;;;4.55;1.90;;;;;;;;;;6247343;22;20008;-39
2022/11/06 03:11:37;;;;;;;6.00;2.80;;;;;;;;;;6235575;22;20413;-40
2022/11/06 03:14:09;;;;;;;6.03;2.75;;;;;;;;;;6240664;22;20094;-40
2022/11/06 03:16:41;;;;;;;4.73;1.93;;;;;;;;;;6248812;22;20020;-43
2022/11/06 03:19:10;;;;;;;4.72;1.60;;;;;;;;;;6230794;22;20400;-39
2022/11/06 03:21:42;;;;;;;6.95;3.85;;;;;;;;;;6247798;22;20372;-39
2022/11/06 03:24:12;;;;;;;3.78;1.65;;;;;;;;;;6238469;22;20474;-39
2022/11/06 03:26:43;;;;;;;4.85;2.28;;;;;;;;;;6233333;22;20016;-40
2022/11/06 03:29:12;;;;;;;5.27;2.60;;;;;;;;;;6241645;22;20024;-41
2022/11/06 03:31:44;;;;;;;5.78;2.45;;;;;;;;;;6230347;22;20016;-40
2022/11/06 03:34:15;;;;;;;4.97;3.50;;;;;;;;;;6249166;22;20015;-39
2022/11/06 03:36:43;;;;;;;4.68;1.98;;;;;;;;;;6240611;22;20012;-40
2022/11/06 03:39:12;;;;;;;7.15;2.47;;;;;;;;;;6248148;22;20091;-41
2022/11/06 03:41:42;;;;;;;4.17;1.67;;;;;;;;;;6232232;22;20043;-40
2022/11/06 03:44:11;;;;;;;3.60;1.95;;;;;;;;;;6248997;22;20015;-40
2022/11/06 03:46:41;;;;;;;4.60;1.60;;;;;;;;;;6240950;22;20020;-39
2022/11/06 03:49:11;;;;;;;11.77;2.28;;;;;;;;;;6241908;22;20016;-40
2022/11/06 03:51:40;;;;;;;4.95;1.63;;;;;;;;;;6235256;22;20130;-39
2022/11/06 03:54:08;;;;;;;3.40;1.47;;;;;;;;;;6249262;22;20023;-39
2022/11/06 03:56:37;;;;;;;3.67;1.65;;;;;;;;;;6238268;22;20057;-40
2022/11/06 03:59:04;;;;;;;4.78;2.25;;;;;;;;;;6239829;22;20216;-40
2022/11/06 04:01:33;;;;;;;4.53;2.45;;;;;;;;;;6247341;22;20012;-39
2022/11/06 04:04:02;;;;;;;3.35;1.65;;;;;;;;;;6229345;22;20016;-40
2022/11/06 04:14:38;;;;;;;3.63;1.88;;;;;;;;;;6239551;22;20091;-40
2022/11/06 04:17:08;;;;;;;4.75;2.15;;;;;;;;;;6247849;22;20061;-40
2022/11/06 04:19:34;;;;;;;5.47;1.93;;;;;;;;;;6240215;22;20018;-42
2022/11/06 04:22:11;;;;;;;5.32;1.98;;;;;;;;;;6243194;22;20070;-40
2022/11/06 04:27:33;;;;;;;4.25;2.08;;;;;;;;;;6236955;22;20016;-40
2022/11/06 04:30:04;;;;;;;4.32;2.22;;;;;;;;;;6246487;22;20375;-40
2022/11/06 04:32:35;;;;;;;4.90;2.23;;;;;;;;;;6234250;22;20011;-41
2022/11/06 04:35:04;;;;;;;4.68;1.98;;;;;;;;;;6214099;22;20011;-43
2022/11/06 04:37:36;;;;;;;5.60;2.33;;;;;;;;;;6243702;22;20011;-40
2022/11/06 04:40:07;;;;;;;4.05;1.55;;;;;;;;;;6218298;22;20665;-41
2022/11/06 04:42:36;;;;;;;3.47;1.90;;;;;;;;;;6242145;22;20022;-40
2022/11/06 04:45:04;;;;;;;3.77;1.50;;;;;;;;;;6248078;22;20091;-40
2022/11/06 04:47:31;;;;;;;9.63;1.92;;;;;;;;;;6235321;22;20401;-40
2022/11/06 04:49:59;;;;;;;3.67;1.77;;;;;;;;;;6238527;22;20367;-40
2022/11/06 04:52:27;;;;;;;4.78;2.08;;;;;;;;;;6246652;22;20529;-40
2022/11/06 04:54:56;;;;;;;3.25;1.20;;;;;;;;;;6232224;22;20389;-41
2022/11/06 04:57:23;;;;;;;4.13;1.43;;;;;;;;;;6246714;22;20015;-40
2022/11/06 04:59:49;;;;;;;4.38;1.88;;;;;;;;;;6241189;22;20070;-40
2022/11/06 05:02:16;;;;;;;3.78;1.58;;;;;;;;;;6230796;22;20289;-41
2022/11/06 05:04:42;;;;;;;5.85;1.63;;;;;;;;;;6250305;22;20061;-40
2022/11/06 05:07:11;;;;;;;3.45;1.55;;;;;;;;;;6235909;22;20016;-40
2022/11/06 05:09:38;;;;;;;4.07;1.13;;;;;;;;;;6243383;22;20015;-39
2022/11/06 05:12:06;;;;;;;5.25;3.17;;;;;;;;;;6244111;22;20016;-40
2022/11/06 05:14:32;;;;;;;4.45;2.47;;;;;;;;;;6245780;22;20513;-40
2022/11/06 05:16:59;;;;;;;3.88;1.92;;;;;;;;;;6239047;22;20016;-40
2022/11/06 05:19:26;;;;;;;3.70;1.70;;;;;;;;;;6239550;22;20538;-39
2022/11/06 05:24:36;;;;;;;3.58;1.42;;;;;;;;;;6235491;22;20556;-41
2022/11/06 05:27:02;;;;;;;6.78;2.55;;;;;;;;;;6246591;22;20031;-40
2022/11/06 05:29:30;;;;;;;4.15;2.38;;;;;;;;;;6240929;22;20020;-41
2022/11/06 05:31:57;;;;;;;5.70;1.85;;;;;;;;;;6244973;22;20038;-40
2022/11/06 05:34:23;;;;;;;4.67;2.30;;;;;;;;;;6235225;22;20077;-41
2022/11/06 05:36:51;;;;;;;3.80;1.92;;;;;;;;;;6238334;22;20057;-45
2022/11/06 05:39:18;;;;;;;3.70;1.77;;;;;;;;;;6232546;22;20379;-40
2022/11/06 05:41:44;;;;;;;5.03;1.58;;;;;;;;;;6248015;22;20019;-40
2022/11/06 05:44:11;;;;;;;3.63;1.88;;;;;;;;;;6241119;22;20477;-40
2022/11/06 05:46:39;;;;;;;2.87;1.37;;;;;;;;;;6239395;22;20016;-40
2022/11/06 05:49:05;;;;;;;6.28;2.97;;;;;;;;;;6243578;22;20401;-40
2022/11/06 05:51:32;;;;;;;5.53;1.85;;;;;;;;;;6234523;22;20058;-40
2022/11/06 05:53:58;;;;;;;4.90;1.95;;;;;;;;;;6237794;22;20015;-41
2022/11/06 05:56:25;;;;;;;4.20;1.60;;;;;;;;;;6242824;22;20065;-41
2022/11/06 05:58:51;;;;;;;3.70;1.77;;;;;;;;;;6237671;22;20046;-40
2022/11/06 06:01:17;;;;;;;4.57;1.83;;;;;;;;;;6243769;22;20012;-40
2022/11/06 06:03:45;;;;;;;5.22;2.55;;;;;;;;;;6242312;22;20027;-39
2022/11/06 06:06:12;;;;;;;5.03;2.25;;;;;;;;;;6235828;22;20019;-41
2022/11/06 06:08:38;;;;;;;7.70;2.17;;;;;;;;;;6238998;22;20015;-39
2022/11/06 06:11:05;;;;;;;4.97;2.23;;;;;;;;;;6240002;22;20065;-40
2022/11/06 06:13:31;;;;;;;3.58;1.77;;;;;;;;;;6245423;22;20069;-40
2022/11/06 06:16:00;;;;;;;5.90;2.22;;;;;;;;;;6239817;22;20038;-39
2022/11/06 06:18:27;;;;;;;5.85;2.50;;;;;;;;;;6248103;22;20343;-41
2022/11/06 06:20:56;;;;;;;4.25;1.63;;;;;;;;;;6224717;22;20022;-41
2022/11/06 06:23:23;;;;;;;4.30;2.33;;;;;;;;;;6247125;22;20490;-41
2022/11/06 06:25:49;;;;;;;4.95;1.77;;;;;;;;;;6232821;22;20020;-41
2022/11/06 06:28:16;;;;;;;5.57;2.90;;;;;;;;;;6244812;22;20271;-43
2022/11/06 06:30:42;;;;;;;4.18;1.98;;;;;;;;;;6239155;22;20477;-43
2022/11/06 06:33:09;;;;;;;6.07;3.83;;;;;;;;;;6237455;22;20023;-42
2022/11/06 06:35:35;;;;;;;4.60;2.20;;;;;;;;;;6235470;22;20513;-44
2022/11/06 06:38:05;;;;;;;6.13;2.47;;;;;;;;;;6247618;22;20020;-40
2022/11/06 06:40:32;;;;;;;5.07;2.22;;;;;;;;;;6252353;22;20011;-40
2022/11/06 06:42:58;;;;;;;4.80;2.28;;;;;;;;;;6240096;22;20069;-40
2022/11/06 06:45:25;;;;;;;3.58;1.40;;;;;;;;;;6249066;22;20591;-42
2022/11/06 06:47:51;;;;;;;4.40;1.67;;;;;;;;;;6235217;22;20397;-42
2022/11/06 06:50:18;;;;;;;4.85;1.40;;;;;;;;;;6244733;22;20050;-40
2022/11/06 06:52:46;;;;;;;4.25;2.10;;;;;;;;;;6237559;22;20977;-40
2022/11/06 06:55:14;;;;;;;7.82;2.30;;;;;;;;;;6250252;22;20043;-43
2022/11/06 06:57:40;;;;;;;4.50;2.05;;;;;;;;;;6236768;22;20069;-42
2022/11/06 07:00:09;;;;;;;5.47;2.90;;;;;;;;;;6242202;22;20250;-41
2022/11/06 07:02:36;;;;;;;4.32;2.05;;;;;;;;;;6244540;22;20200;-41
2022/11/06 07:05:08;;;;;;;3.10;1.40;;;;;;;;;;6239053;22;20011;-41
2022/11/06 07:07:34;;;;;;;5.22;1.95;;;;;;;;;;6249257;22;20019;-40
2022/11/06 07:10:01;;;;;;;6.95;4.50;;;;;;;;;;6236370;22;20312;-41
2022/11/06 07:12:29;;;;;;;5.20;2.57;;;;;;;;;;6246192;22;20019;-44
2022/11/06 07:14:55;;;;;;;5.63;2.30;;;;;;;;;;6241832;22;20085;-40
2022/11/06 07:17:21;;;;;;;5.43;1.85;;;;;;;;;;6240342;22;20016;-46
2022/11/06 07:19:48;;;;;;;5.30;2.53;;;;;;;;;;6243134;22;20016;-41
2022/11/06 07:22:14;;;;;;;10.45;3.47;;;;;;;;;;6230202;22;20019;-40
2022/11/06 07:24:41;;;;;;;5.87;2.73;;;;;;;;;;6246054;22;20405;-40
2022/11/06 07:27:07;;;;;;;4.60;2.50;;;;;;;;;;6237483;22;20016;-40
2022/11/06 07:29:35;;;;;;;4.45;2.33;;;;;;;;;;6246963;22;20065;-39
2022/11/06 07:32:02;;;;;;;5.53;2.92;;;;;;;;;;6235143;22;20019;-41
2022/11/06 07:34:28;;;;;;;4.57;1.65;;;;;;;;;;6247163;22;20040;-40
2022/11/06 07:36:55;;;;;;;5.50;2.13;;;;;;;;;;6236783;22;20081;-41
2022/11/06 07:39:21;;;;;;;6.80;3.10;;;;;;;;;;6245393;22;20019;-40
2022/11/06 07:41:48;;;;;;;4.38;2.03;;;;;;;;;;6237859;22;20585;-43
2022/11/06 07:44:14;;;;;;;5.50;1.90;;;;;;;;;;6244015;22;20012;-40
2022/11/06 07:46:42;;;;;;;4.95;2.53;;;;;;;;;;6240592;22;20085;-41
2022/11/06 07:49:09;;;;;;;3.63;1.97;;;;;;;;;;6248747;22;20015;-41
2022/11/06 07:51:35;;;;;;;3.42;1.63;;;;;;;;;;6237030;22;20098;-40
2022/11/06 07:54:02;;;;;;;4.63;2.15;;;;;;;;;;6243702;22;20555;-40
2022/11/06 07:56:28;;;;;;;3.20;1.48;;;;;;;;;;6235701;22;20038;-40
2022/11/06 07:58:55;;;;;;;6.30;2.50;;;;;;;;;;6238978;22;20574;-40
2022/11/06 08:01:21;;;;;;;4.47;1.70;;;;;;;;;;6248196;22;20049;-40
2022/11/06 08:03:49;;;;;;;5.25;2.10;;;;;;;;;;6231344;22;20016;-40
2022/11/06 08:06:16;;;;;;;5.60;3.05;;;;;;;;;;6244535;22;20027;-40
2022/11/06 08:08:42;;;;;;;3.63;1.42;;;;;;;;;;6237291;22;20034;-40
2022/11/06 08:11:09;;;;;;;6.38;2.85;;;;;;;;;;6242834;22;20073;-41
2022/11/06 08:13:36;;;;;;;5.30;2.20;;;;;;;;;;6238605;22;20316;-44
2022/11/06 08:16:03;;;;;;;5.15;2.00;;;;;;;;;;6237773;22;20011;-40
2022/11/06 08:18:30;;;;;;;4.90;1.88;;;;;;;;;;6246083;22;20065;-42
2022/11/06 08:20:57;;;;;;;3.33;1.63;;;;;;;;;;6234961;22;20073;-43
2022/11/06 08:23:24;;;;;;;3.10;1.40;;;;;;;;;;6237670;22;20516;-39
2022/11/06 08:25:53;;;;;;;2.60;0.93;;;;;;;;;;6241980;22;20012;-42
2022/11/06 08:28:19;;;;;;;3.65;0.90;;;;;;;;;;6246505;22;20020;-40
2022/11/06 08:30:46;;;;;;;2.08;0.50;;;;;;;;;;6235218;22;20015;-40
2022/11/06 08:33:13;;;;;;;2.10;0.70;;;;;;;;;;6246020;22;20016;-40
2022/11/06 08:35:40;;;;;;;1.45;0.40;;;;;;;;;;6239763;22;20022;-40
2022/11/06 08:38:08;;;;;;;3.57;0.73;;;;;;;;;;6236296;22;20016;-40
2022/11/06 08:40:36;;;;;;;1.42;0.30;;;;;;;;;;6248010;22;20019;-41
2022/11/06 08:43:04;;;;;;;2.00;0.63;;;;;;;;;;6231805;22;20073;-41
2022/11/06 08:45:30;;;;;;;3.42;0.75;;;;;;;;;;6240060;22;20388;-39
2022/11/06 08:48:00;;;;;;;1.38;0.30;;;;;;;;;;6241228;22;20023;-42
2022/11/06 08:50:27;;;;;;;2.60;0.43;;;;;;;;;;6234326;22;20012;-40
2022/11/06 08:52:55;;;;;;;1.55;0.30;;;;;;;;;;6238029;22;20605;-43
2022/11/06 08:55:23;;;;;;;2.10;0.50;;;;;;;;;;6244445;22;20020;-41
2022/11/06 08:57:50;;;;;;;1.83;0.60;;;;;;;;;;6242172;22;20103;-40
2022/11/06 09:00:16;;;;;;;1.50;0.30;;;;;;;;;;6239363;22;20019;-42
2022/11/06 09:02:43;;;;;;;1.87;0.60;;;;;;;;;;6236566;22;20011;-40
2022/11/06 09:05:10;;;;;;;1.75;0.63;;;;;;;;;;6243218;22;20506;-39
2022/11/06 09:07:37;;;;;;;1.83;0.82;;;;;;;;;;6236826;22;20028;-43
2022/11/06 09:10:04;;;;;;;1.90;0.52;;;;;;;;;;6242626;22;20077;-40
2022/11/06 09:12:32;;;;;;;2.38;0.73;;;;;;;;;;6233851;22;20061;-41
2022/11/06 09:14:59;;;;;;;2.70;0.80;;;;;;;;;;6243160;22;20015;-41
2022/11/06 09:17:25;;;;;;;9.63;0.98;;;;;;;;;;6226873;22;20016;-43
2022/11/06 09:19:52;;;;;;;1.70;0.40;;;;;;;;;;6249504;22;20066;-41
2022/11/06 09:22:19;;;;;;;1.90;0.50;;;;;;;;;;6235679;22;20011;-41
2022/11/06 09:24:46;;;;;;;4.10;1.17;;;;;;;;;;6244487;22;20390;-41
2022/11/06 09:27:12;;;;;;;1.90;0.60;;;;;;;;;;6233632;22;20054;-41
2022/11/06 09:29:42;;;;;;;2.35;0.70;;;;;;;;;;6245440;22;20334;-41
2022/11/06 09:32:09;;;;;;;1.98;1.08;;;;;;;;;;6229564;22;20295;-40
2022/11/06 09:34:36;;;;;;;2.58;1.13;;;;;;;;;;6244036;22;20016;-40
2022/11/06 09:37:03;;;;;;;1.42;0.40;;;;;;;;;;6232706;22;20517;-40
2022/11/06 09:39:29;;;;;;;1.63;0.40;;;;;;;;;;6244121;22;20016;-42
2022/11/06 09:41:59;;;;;;;2.67;1.00;;;;;;;;;;6236977;22;20020;-40
2022/11/06 09:44:32;;;;;;;1.50;0.50;;;;;;;;;;6243157;22;20287;-41
2022/11/06 09:47:03;;;;;;;1.73;0.50;;;;;;;;;;6238852;22;20077;-41
2022/11/06 09:49:33;;;;;;;1.60;0.40;;;;;;;;;;6241431;22;20012;-43
2022/11/06 09:52:01;;;;;;;2.10;0.80;;;;;;;;;;6237831;22;20888;-40
2022/11/06 09:54:31;;;;;;;2.72;0.60;;;;;;;;;;6245605;22;20053;-41
2022/11/06 09:57:01;;;;;;;3.70;0.98;;;;;;;;;;6221302;22;20016;-45
2022/11/06 09:59:27;;;;;;;1.90;0.43;;;;;;;;;;6235670;22;20458;-40
2022/11/06 10:01:55;;;;;;;1.92;0.57;;;;;;;;;;6233359;22;20020;-43
2022/11/06 10:04:28;;;;;;;3.00;1.30;;;;;;;;;;6246880;22;20069;-43
2022/11/06 10:06:55;;;;;;;1.90;0.50;;;;;;;;;;6236130;22;20376;-41
2022/11/06 10:09:21;;;;;;;2.17;0.60;;;;;;;;;;6238815;22;20403;-42
2022/11/06 10:11:51;;;;;;;1.67;0.38;;;;;;;;;;6244294;22;20065;-40
2022/11/06 10:14:25;;;;;;;2.25;0.77;;;;;;;;;;6221295;22;20023;-41
2022/11/06 10:16:54;;;;;;;2.00;0.60;;;;;;;;;;6243933;22;20042;-42
2022/11/06 10:19:24;;;;;;;2.60;0.73;;;;;;;;;;6230351;22;20219;-40
2022/11/06 10:21:57;;;;;;;1.95;0.57;;;;;;;;;;6244399;22;20077;-43
2022/11/06 10:24:28;;;;;;;1.92;0.40;;;;;;;;;;6240166;22;20089;-41
2022/11/06 10:26:57;;;;;;;2.65;0.80;;;;;;;;;;6235340;22;20012;-42
2022/11/06 10:29:41;;;;;;;1.90;0.53;;;;;;;;;;6244069;22;20340;-41
2022/11/06 10:32:38;;;;;;;1.80;0.40;;;;;;;;;;6235381;22;20389;-40
2022/11/06 10:35:08;;;;;;;1.92;0.60;;;;;;;;;;6142462;23;20510;-40
2022/11/06 10:37:39;;;;;;;1.95;0.60;;;;;;;;;;6212146;22;20069;-41
2022/11/06 10:40:07;;;;;;;3.30;1.20;;;;;;;;;;6242743;22;20039;-40
2022/11/06 10:42:35;;;;;;;2.63;0.80;;;;;;;;;;6241353;22;20061;-40
2022/11/06 10:45:03;;;;;;;3.25;0.80;;;;;;;;;;6246899;22;20019;-39
2022/11/06 10:47:32;;;;;;;1.95;0.50;;;;;;;;;;6239915;22;20020;-40
2022/11/06 10:50:00;;;;;;;1.40;0.40;;;;;;;;;;6237454;22;20618;-40
2022/11/06 10:52:42;;;;;;;3.35;0.68;;;;;;;;;;6247891;22;20015;-43
2022/11/06 10:55:27;;;;;;;4.13;1.00;;;;;;;;;;6245071;22;20482;-43
2022/11/06 10:57:56;;;;;;;1.52;0.30;;;;;;;;;;6243974;22;20015;-41
2022/11/06 11:00:22;;;;;;;1.75;0.40;;;;;;;;;;6234014;22;20061;-40
2022/11/06 11:02:51;;;;;;;1.83;0.40;;;;;;;;;;6245892;22;20592;-42
2022/11/06 11:05:18;;;;;;;2.03;0.63;;;;;;;;;;6226313;22;20344;-43
2022/11/06 11:07:47;;;;;;;2.70;0.70;;;;;;;;;;6246429;22;20446;-40
2022/11/06 11:10:25;;;;;;;1.20;0.20;;;;;;;;;;6234537;22;20066;-41
2022/11/06 11:12:52;;;;;;;1.85;0.52;;;;;;;;;;6243192;22;20146;-40
2022/11/06 11:15:19;;;;;;;5.20;1.33;;;;;;;;;;6240805;22;20016;-40
2022/11/06 11:18:06;;;;;;;2.67;0.75;;;;;;;;;;6233025;22;20027;-41
2022/11/06 11:20:33;;;;;;;3.17;0.97;;;;;;;;;;6239465;22;20018;-42
2022/11/06 11:23:13;;;;;;;2.10;0.65;;;;;;;;;;6245464;22;20020;-40
2022/11/06 11:25:41;;;;;;;4.65;1.02;;;;;;;;;;6236293;22;20023;-40
2022/11/06 11:28:12;;;;;;;2.13;0.68;;;;;;;;;;6236952;22;20065;-40
2022/11/06 11:30:39;;;;;;;1.83;0.45;;;;;;;;;;6239289;22;20319;-42
2022/11/06 11:33:12;;;;;;;3.57;0.97;;;;;;;;;;6247726;22;20026;-42
2022/11/06 11:35:39;;;;;;;2.35;1.00;;;;;;;;;;6237242;22;20042;-40
2022/11/06 11:38:10;;;;;;;1.98;0.65;;;;;;;;;;6241741;22;20163;-40
2022/11/06 11:40:37;;;;;;;1.50;0.30;;;;;;;;;;6255029;22;20020;-42
2022/11/06 11:43:20;;;;;;;6.28;0.77;;;;;;;;;;6233140;22;20231;-40
2022/11/06 11:46:00;;;;;;;3.63;0.80;;;;;;;;;;6239461;22;20016;-42
2022/11/06 11:48:27;;;;;;;1.60;0.43;;;;;;;;;;6240852;22;20054;-43
2022/11/06 11:50:53;;;;;;;2.10;0.50;;;;;;;;;;6248698;22;20019;-41
2022/11/06 11:53:22;;;;;;;2.63;1.10;;;;;;;;;;6237387;22;20017;-42
2022/11/06 11:55:51;;;;;;;4.50;1.65;;;;;;;;;;6243451;22;20019;-41
2022/11/06 11:58:20;;;;;;;5.30;1.17;;;;;;;;;;6245525;22;20080;-42
2022/11/06 12:00:51;;;;;;;1.88;0.50;;;;;;;;;;6222015;22;20297;-42
2022/11/06 12:03:18;;;;;;;2.22;0.55;;;;;;;;;;6250404;22;20043;-40
2022/11/06 12:05:44;;;;;;;1.90;0.47;;;;;;;;;;6238113;22;20392;-40
2022/11/06 12:08:14;;;;;;;2.17;0.60;;;;;;;;;;6241563;22;20020;-44
2022/11/06 12:10:43;;;;;;;2.83;1.00;;;;;;;;;;6228308;22;20016;-40
2022/11/06 12:13:15;;;;;;;1.88;0.80;;;;;;;;;;6243907;22;20012;-40
2022/11/06 12:15:45;;;;;;;1.80;0.60;;;;;;;;;;6240022;22;20100;-43
2022/11/06 12:18:13;;;;;;;2.00;0.63;;;;;;;;;;6241277;22;20020;-42
2022/11/06 12:20:42;;;;;;;1.83;0.40;;;;;;;;;;6242092;22;20015;-41
2022/11/06 12:23:12;;;;;;;1.77;0.40;;;;;;;;;;6247712;22;20442;-41
2022/11/06 12:25:41;;;;;;;1.67;0.35;;;;;;;;;;6234439;22;20027;-42
2022/11/06 12:28:13;;;;;;;1.50;0.30;;;;;;;;;;6243576;22;20457;-44
2022/11/06 12:30:41;;;;;;;2.45;0.70;;;;;;;;;;6239421;22;20346;-48
2022/11/06 12:33:11;;;;;;;1.95;0.60;;;;;;;;;;6239123;22;20446;-44
2022/11/06 12:35:40;;;;;;;1.20;0.23;;;;;;;;;;6238329;22;20334;-45
2022/11/06 12:38:17;;;;;;;1.70;0.40;;;;;;;;;;6241930;22;20015;-43
2022/11/06 12:40:47;;;;;;;1.30;0.20;;;;;;;;;;6240321;22;20020;-44
2022/11/06 12:43:20;;;;;;;1.83;0.63;;;;;;;;;;6242771;22;20023;-42
2022/11/06 12:46:02;;;;;;;1.30;0.20;;;;;;;;;;6237287;22;20012;-43
2022/11/06 12:48:34;;;;;;;1.10;0.20;;;;;;;;;;6240707;22;20020;-43
2022/11/06 12:51:04;;;;;;;1.70;0.40;;;;;;;;;;6232403;22;20016;-42
2022/11/06 12:53:36;;;;;;;1.40;0.30;;;;;;;;;;6247981;22;20015;-44
2022/11/06 12:56:06;;;;;;;1.63;0.38;;;;;;;;;;6224910;22;20395;-44
2022/11/06 12:58:49;;;;;;;1.63;0.40;;;;;;;;;;6253749;22;20023;-46
2022/11/06 13:01:17;;;;;;;1.30;0.30;;;;;;;;;;6244955;22;20026;-44
2022/11/06 13:03:54;;;;;;;1.40;0.30;;;;;;;;;;6239632;22;20111;-44
2022/11/06 13:06:25;;;;;;;1.30;0.20;;;;;;;;;;6247943;22;20054;-44
2022/11/06 13:08:54;;;;;;;1.30;0.22;;;;;;;;;;6234789;22;20171;-46
2022/11/06 13:11:25;;;;;;;1.85;0.55;;;;;;;;;;6240364;22;20050;-44
2022/11/06 13:14:04;;;;;;;1.80;0.50;;;;;;;;;;6244456;22;20161;-44
2022/11/06 13:16:33;;;;;;;1.63;0.40;;;;;;;;;;6247228;22;20074;-42
2022/11/06 13:19:04;;;;;;;1.45;0.30;;;;;;;;;;6238102;22;20069;-44
2022/11/06 13:21:34;;;;;;;4.68;0.45;;;;;;;;;;6243928;22;20008;-42
2022/11/06 13:24:03;;;;;;;2.15;0.98;;;;;;;;;;6233457;22;20439;-44
2022/11/06 13:26:33;;;;;;;3.03;0.47;;;;;;;;;;6247165;22;20019;-44
2022/11/06 13:29:03;;;;;;;1.65;0.38;;;;;;;;;;6231228;22;20078;-44
2022/11/06 13:31:38;;;;;;;2.13;0.40;;;;;;;;;;6248522;22;20019;-44
2022/11/06 13:34:05;;;;;;;1.30;0.30;;;;;;;;;;6239141;22;20050;-42
2022/11/06 13:36:36;;;;;;;1.88;0.40;;;;;;;;;;6235916;22;20381;-44
2022/11/06 13:39:05;;;;;;;1.33;0.20;;;;;;;;;;6248035;22;20100;-44
2022/11/06 13:41:32;;;;;;;2.10;0.73;;;;;;;;;;6239992;22;20019;-44
2022/11/06 13:44:01;;;;;;;1.30;0.30;;;;;;;;;;6239110;22;20011;-44
2022/11/06 13:46:30;;;;;;;1.30;0.20;;;;;;;;;;6244680;22;20270;-44
2022/11/06 13:49:02;;;;;;;1.67;0.60;;;;;;;;;;6244301;22;20023;-45
2022/11/06 13:51:33;;;;;;;1.50;0.30;;;;;;;;;;6232315;22;20062;-43
2022/11/06 13:54:02;;;;;;;1.40;0.30;;;;;;;;;;6245804;22;20427;-45
2022/11/06 13:56:46;;;;;;;1.60;0.40;;;;;;;;;;6233546;22;20087;-43
2022/11/06 13:59:28;;;;;;;1.60;0.40;;;;;;;;;;6189983;22;20069;-43
2022/11/06 14:02:01;;;;;;;2.00;0.52;;;;;;;;;;6236826;22;20019;-42
2022/11/06 14:04:36;;;;;;;1.20;0.27;;;;;;;;;;6244540;22;20061;-44
2022/11/06 14:07:04;;;;;;;1.20;0.20;;;;;;;;;;6236247;22;20012;-44
2022/11/06 14:09:32;;;;;;;1.88;0.65;;;;;;;;;;6246775;22;20028;-44
2022/11/06 14:12:00;;;;;;;1.40;0.52;;;;;;;;;;6240443;22;20069;-44
2022/11/06 14:14:29;;;;;;;1.42;0.30;;;;;;;;;;6230374;22;20803;-45
2022/11/06 14:17:10;;;;;;;1.20;0.20;;;;;;;;;;6248673;22;20024;-43
2022/11/06 14:19:37;;;;;;;1.55;0.30;;;;;;;;;;6222898;22;20020;-43
2022/11/06 14:22:16;;;;;;;1.35;0.20;;;;;;;;;;6246829;22;20716;-43
2022/11/06 14:24:44;;;;;;;1.50;0.30;;;;;;;;;;6243491;22;20113;-44
2022/11/06 14:27:11;;;;;;;1.50;0.30;;;;;;;;;;6236296;22;20418;-43
2022/11/06 14:29:53;;;;;;;1.57;0.37;;;;;;;;;;6248370;22;20323;-43
2022/11/06 14:32:34;;;;;;;1.75;0.40;;;;;;;;;;6235964;22;20468;-43
2022/11/06 14:35:16;;;;;;;1.90;0.45;;;;;;;;;;6234302;22;20023;-43
2022/11/06 14:37:46;;;;;;;1.58;0.40;;;;;;;;;;6244720;22;20015;-44
2022/11/06 14:40:14;;;;;;;1.60;0.30;;;;;;;;;;6239106;22;20091;-43
2022/11/06 14:42:41;;;;;;;1.50;0.30;;;;;;;;;;6240853;22;20016;-42
2022/11/06 14:45:10;;;;;;;1.90;0.47;;;;;;;;;;6241589;22;20356;-42
2022/11/06 14:47:39;;;;;;;1.42;0.30;;;;;;;;;;6246005;22;20015;-43
2022/11/06 14:50:08;;;;;;;1.58;0.40;;;;;;;;;;6234037;22;20031;-44
2022/11/06 14:52:43;;;;;;;1.52;0.30;;;;;;;;;;6245540;22;20443;-44
2022/11/06 14:55:17;;;;;;;10.60;0.40;;;;;;;;;;6239735;22;20012;-43
2022/11/06 14:57:46;;;;;;;1.70;0.40;;;;;;;;;;6240059;22;20015;-42
2022/11/06 15:00:14;;;;;;;2.78;0.43;;;;;;;;;;6230471;22;20046;-43
2022/11/06 15:02:43;;;;;;;1.25;0.40;;;;;;;;;;6244547;22;20113;-42
2022/11/06 15:05:14;;;;;;;1.40;0.20;;;;;;;;;;6241324;22;20023;-43
2022/11/06 15:07:56;;;;;;;1.30;0.30;;;;;;;;;;6245815;22;20015;-43
2022/11/06 15:10:41;;;;;;;1.80;0.38;;;;;;;;;;6236290;22;20083;-44